Kezdőlap
METAR-TAF:

METAR-TAF

Repülőterek :

Igloolik, Nunavut, Kanada

földrajzi szélesség: 69-22N, földrajzi hosszúság: 081-49W, magasság: 51 m

Jelenlegi meteorológiai megfigyelések

A jelentés 42 perccel ezelõtt készült, 20:00 UTC
Dél-délkeleti szél 7 kt
Hőmérséklet 12°C
Páratartalom 62%
Légköri nyomás 1008 hPa
Látótávolság: 24.1 km
Kevés felhő 3500 lábon
Kevés felhő 15000 lábon

METAR: CYGT 092000Z 15007KT 15SM FEW035 FEW150 12/05 A2978 RMK SC2AS1 SLP091

Idő: 16:42 (20:42 UTC)

Előrejelzés

A jelentés 2 órával és 4 perccel ezelõtt készült, 18:38 UTC
Az előrejelzés 09-én 19 óra UTC és 09-én 21 óra UTC között érvényes
Délkeleti szél 8 kt
Látótávolság: 10 km
Kevés felhő 3000 lábon
Szórványos felhőzet 15000 lábon

TAF: CYGT 091838Z 0919/0921 14008KT P6SM FEW030 SCT150 RMK NXT FCST WILL BE ISSUED AT 101145Z

Meteorológiai megfigyelések és előrejelzések több, mint 4000 repülőtéren (METAR és TAF jelentéseket).

A térképen piros és sárga pontok jelzik az elérhető meteorológiai állomásokat.

Mozgassa az egeret a pont fölött, hogy megjelenjen az állomás neve.

Azután kattintson az időjárási megfigyelések és előrejelzések megtekintéséhez.

A térkép megváltoztatása: kattintson a fekete keresztel jelölt zöld gombra ráközelítéshez, a vonallal jelölt zöld gombra távolításhoz, vagy a zöld nyilakra a szomszédos térképek eléréséhez.


METAR-TAF: